sensor_id;sensor_type;location;lat;lon;timestamp;pressure;altitude;pressure_sealevel;temperature;humidity
50282;BME280;36176;51.506;10.272;2022-07-29T00:01:54;99636.97;;;18.45;46.06
50282;BME280;36176;51.506;10.272;2022-07-29T00:04:22;99634.53;;;18.42;46.04
50282;BME280;36176;51.506;10.272;2022-07-29T00:06:49;99630.38;;;18.38;46.40
50282;BME280;36176;51.506;10.272;2022-07-29T00:09:16;99618.41;;;18.31;46.51
50282;BME280;36176;51.506;10.272;2022-07-29T00:11:55;99617.91;;;18.25;47.49
50282;BME280;36176;51.506;10.272;2022-07-29T00:15:07;99605.47;;;18.24;46.94
50282;BME280;36176;51.506;10.272;2022-07-29T00:17:54;99598.50;;;18.22;47.08
50282;BME280;36176;51.506;10.272;2022-07-29T00:20:21;99604.84;;;18.21;46.83
50282;BME280;36176;51.506;10.272;2022-07-29T00:22:48;99607.63;;;18.19;46.94
50282;BME280;36176;51.506;10.272;2022-07-29T00:25:15;99609.94;;;18.13;47.26
50282;BME280;36176;51.506;10.272;2022-07-29T00:27:45;99608.47;;;18.09;46.71
50282;BME280;36176;51.506;10.272;2022-07-29T00:30:28;99604.19;;;18.06;46.97
50282;BME280;36176;51.506;10.272;2022-07-29T00:33:13;99594.91;;;17.99;47.09
50282;BME280;36176;51.506;10.272;2022-07-29T00:35:40;99590.97;;;17.92;47.84
50282;BME280;36176;51.506;10.272;2022-07-29T00:38:15;99599.38;;;17.87;47.54
50282;BME280;36176;51.506;10.272;2022-07-29T00:40:43;99581.16;;;17.79;48.18
50282;BME280;36176;51.506;10.272;2022-07-29T00:43:27;99592.84;;;17.78;47.63
50282;BME280;36176;51.506;10.272;2022-07-29T00:45:54;99594.66;;;17.78;47.62
50282;BME280;36176;51.506;10.272;2022-07-29T00:48:21;99596.00;;;17.72;48.21
50282;BME280;36176;51.506;10.272;2022-07-29T00:51:09;99589.47;;;17.63;48.17
50282;BME280;36176;51.506;10.272;2022-07-29T00:53:37;99583.72;;;17.57;48.49
50282;BME280;36176;51.506;10.272;2022-07-29T00:56:05;99583.84;;;17.55;48.56
50282;BME280;36176;51.506;10.272;2022-07-29T00:58:32;99588.22;;;17.56;48.68
50282;BME280;36176;51.506;10.272;2022-07-29T01:00:59;99578.50;;;17.55;48.26
50282;BME280;36176;51.506;10.272;2022-07-29T01:03:26;99577.75;;;17.53;48.39
50282;BME280;36176;51.506;10.272;2022-07-29T01:05:54;99573.69;;;17.48;48.75
50282;BME280;36176;51.506;10.272;2022-07-29T01:08:23;99571.38;;;17.43;49.32
50282;BME280;36176;51.506;10.272;2022-07-29T01:10:50;99574.50;;;17.37;49.14
50282;BME280;36176;51.506;10.272;2022-07-29T01:13:44;99562.94;;;17.36;48.66
50282;BME280;36176;51.506;10.272;2022-07-29T01:16:57;99569.53;;;17.43;48.64
50282;BME280;36176;51.506;10.272;2022-07-29T01:33:12;99547.63;;;17.74;47.78
50282;BME280;36176;51.506;10.272;2022-07-29T01:36:04;99542.16;;;17.75;47.58
50282;BME280;36176;51.506;10.272;2022-07-29T01:38:35;99544.59;;;17.78;48.05
50282;BME280;36176;51.506;10.272;2022-07-29T01:41:05;99542.06;;;17.77;47.96
50282;BME280;36176;51.506;10.272;2022-07-29T01:43:53;99542.69;;;17.80;48.32
50282;BME280;36176;51.506;10.272;2022-07-29T01:46:41;99542.59;;;17.82;48.14
50282;BME280;36176;51.506;10.272;2022-07-29T01:49:18;99541.72;;;17.81;47.77
50282;BME280;36176;51.506;10.272;2022-07-29T01:55:52;99539.56;;;17.87;47.85
50282;BME280;36176;51.506;10.272;2022-07-29T01:58:25;99540.16;;;17.90;47.61
50282;BME280;36176;51.506;10.272;2022-07-29T02:01:04;99542.00;;;17.90;47.89
50282;BME280;36176;51.506;10.272;2022-07-29T02:03:39;99531.50;;;17.87;47.90
50282;BME280;36176;51.506;10.272;2022-07-29T02:06:22;99538.69;;;17.86;47.75
50282;BME280;36176;51.506;10.272;2022-07-29T02:08:55;99533.94;;;17.90;47.49
50282;BME280;36176;51.506;10.272;2022-07-29T02:11:24;99529.44;;;17.90;47.37
50282;BME280;36176;51.506;10.272;2022-07-29T02:17:07;99532.75;;;17.94;47.38
50282;BME280;36176;51.506;10.272;2022-07-29T02:20:03;99514.84;;;17.94;47.75
50282;BME280;36176;51.506;10.272;2022-07-29T02:23:04;99520.31;;;17.93;47.76
50282;BME280;36176;51.506;10.272;2022-07-29T02:25:53;99520.31;;;17.93;48.10
50282;BME280;36176;51.506;10.272;2022-07-29T02:28:45;99524.06;;;17.90;47.57
50282;BME280;36176;51.506;10.272;2022-07-29T02:31:33;99517.97;;;17.88;48.18
50282;BME280;36176;51.506;10.272;2022-07-29T02:34:23;99520.78;;;17.87;47.96
50282;BME280;36176;51.506;10.272;2022-07-29T02:36:54;99519.91;;;17.86;48.00
50282;BME280;36176;51.506;10.272;2022-07-29T02:39:50;99514.94;;;17.81;48.03
50282;BME280;36176;51.506;10.272;2022-07-29T02:42:23;99509.56;;;17.81;48.23
50282;BME280;36176;51.506;10.272;2022-07-29T02:44:53;99517.38;;;17.84;48.10
50282;BME280;36176;51.506;10.272;2022-07-29T02:47:30;99511.03;;;17.85;47.97
50282;BME280;36176;51.506;10.272;2022-07-29T02:50:27;99512.63;;;17.88;48.62
50282;BME280;36176;51.506;10.272;2022-07-29T02:53:07;99510.28;;;17.83;48.24
50282;BME280;36176;51.506;10.272;2022-07-29T02:55:45;99519.22;;;17.84;48.21
50282;BME280;36176;51.506;10.272;2022-07-29T02:58:27;99514.81;;;17.83;48.64
50282;BME280;36176;51.506;10.272;2022-07-29T03:00:58;99512.25;;;17.81;48.21
50282;BME280;36176;51.506;10.272;2022-07-29T03:03:36;99509.66;;;17.80;48.56
50282;BME280;36176;51.506;10.272;2022-07-29T03:06:03;99503.78;;;17.75;48.20
50282;BME280;36176;51.506;10.272;2022-07-29T03:08:32;99510.09;;;17.74;48.37
50282;BME280;36176;51.506;10.272;2022-07-29T03:11:01;99505.34;;;17.66;48.90
50282;BME280;36176;51.506;10.272;2022-07-29T03:13:29;99509.22;;;17.62;49.40
50282;BME280;36176;51.506;10.272;2022-07-29T03:15:58;99502.59;;;17.55;49.98
50282;BME280;36176;51.506;10.272;2022-07-29T03:18:26;99501.59;;;17.44;49.78
50282;BME280;36176;51.506;10.272;2022-07-29T03:20:53;99502.78;;;17.40;49.89
50282;BME280;36176;51.506;10.272;2022-07-29T03:23:22;99497.06;;;17.34;50.14
50282;BME280;36176;51.506;10.272;2022-07-29T03:25:50;99493.50;;;17.33;50.10
50282;BME280;36176;51.506;10.272;2022-07-29T03:28:17;99499.34;;;17.27;50.70
50282;BME280;36176;51.506;10.272;2022-07-29T03:30:46;99491.41;;;17.26;50.71
50282;BME280;36176;51.506;10.272;2022-07-29T03:33:13;99491.75;;;17.21;50.56
50282;BME280;36176;51.506;10.272;2022-07-29T03:35:40;99497.97;;;17.21;50.44
50282;BME280;36176;51.506;10.272;2022-07-29T03:38:07;99493.47;;;17.22;50.52
50282;BME280;36176;51.506;10.272;2022-07-29T03:40:43;99494.72;;;17.29;50.55
50282;BME280;36176;51.506;10.272;2022-07-29T03:43:12;99492.06;;;17.29;51.01
50282;BME280;36176;51.506;10.272;2022-07-29T03:45:47;99484.97;;;17.28;50.67
50282;BME280;36176;51.506;10.272;2022-07-29T03:48:19;99494.59;;;17.31;51.18
50282;BME280;36176;51.506;10.272;2022-07-29T03:50:48;99488.53;;;17.29;51.29
50282;BME280;36176;51.506;10.272;2022-07-29T03:53:15;99483.28;;;17.27;50.96
50282;BME280;36176;51.506;10.272;2022-07-29T03:55:50;99483.50;;;17.24;51.26
50282;BME280;36176;51.506;10.272;2022-07-29T03:58:19;99480.69;;;17.26;50.71
50282;BME280;36176;51.506;10.272;2022-07-29T04:00:46;99482.28;;;17.28;50.55
50282;BME280;36176;51.506;10.272;2022-07-29T04:03:15;99482.78;;;17.33;50.00
50282;BME280;36176;51.506;10.272;2022-07-29T04:05:42;99490.38;;;17.39;50.01
50282;BME280;36176;51.506;10.272;2022-07-29T04:08:09;99488.94;;;17.47;49.86
50282;BME280;36176;51.506;10.272;2022-07-29T04:10:37;99497.38;;;17.53;49.66
50282;BME280;36176;51.506;10.272;2022-07-29T04:13:05;99503.25;;;17.58;49.74
50282;BME280;36176;51.506;10.272;2022-07-29T04:15:32;99507.50;;;17.61;49.45
50282;BME280;36176;51.506;10.272;2022-07-29T04:17:59;99509.00;;;17.65;49.75
50282;BME280;36176;51.506;10.272;2022-07-29T04:20:26;99512.41;;;17.67;49.55
50282;BME280;36176;51.506;10.272;2022-07-29T04:22:53;99504.00;;;17.72;50.00
50282;BME280;36176;51.506;10.272;2022-07-29T04:25:21;99510.00;;;17.75;48.96
50282;BME280;36176;51.506;10.272;2022-07-29T04:27:48;99508.81;;;17.79;49.27
50282;BME280;36176;51.506;10.272;2022-07-29T04:30:27;99518.56;;;17.80;49.46
50282;BME280;36176;51.506;10.272;2022-07-29T04:32:55;99503.97;;;17.84;49.63
50282;BME280;36176;51.506;10.272;2022-07-29T04:35:22;99508.34;;;17.85;49.96
50282;BME280;36176;51.506;10.272;2022-07-29T04:37:49;99503.13;;;17.84;49.70
50282;BME280;36176;51.506;10.272;2022-07-29T04:40:16;99502.25;;;17.83;49.68
50282;BME280;36176;51.506;10.272;2022-07-29T04:42:43;99503.22;;;17.82;49.45
50282;BME280;36176;51.506;10.272;2022-07-29T04:45:15;99494.34;;;17.82;49.54
50282;BME280;36176;51.506;10.272;2022-07-29T04:47:48;99500.44;;;17.84;49.26
50282;BME280;36176;51.506;10.272;2022-07-29T04:50:15;99497.75;;;17.84;49.04
50282;BME280;36176;51.506;10.272;2022-07-29T04:52:43;99506.41;;;17.88;49.50
50282;BME280;36176;51.506;10.272;2022-07-29T04:55:10;99502.03;;;17.87;49.11
50282;BME280;36176;51.506;10.272;2022-07-29T04:57:37;99508.34;;;17.85;49.03
50282;BME280;36176;51.506;10.272;2022-07-29T05:00:05;99508.34;;;17.85;48.65
50282;BME280;36176;51.506;10.272;2022-07-29T05:02:32;99509.09;;;17.88;48.78
50282;BME280;36176;51.506;10.272;2022-07-29T05:04:59;99509.84;;;17.90;49.31
50282;BME280;36176;51.506;10.272;2022-07-29T05:07:26;99516.88;;;17.91;49.08
50282;BME280;36176;51.506;10.272;2022-07-29T05:09:53;99512.41;;;17.91;49.34
50282;BME280;36176;51.506;10.272;2022-07-29T05:12:24;99515.09;;;17.91;49.48
50282;BME280;36176;51.506;10.272;2022-07-29T05:14:51;99515.94;;;17.92;48.93
50282;BME280;36176;51.506;10.272;2022-07-29T05:17:18;99514.09;;;17.92;49.71
50282;BME280;36176;51.506;10.272;2022-07-29T05:19:45;99510.09;;;17.98;49.82
50282;BME280;36176;51.506;10.272;2022-07-29T05:22:13;99513.28;;;18.03;49.24
50282;BME280;36176;51.506;10.272;2022-07-29T05:24:40;99505.72;;;18.08;50.31
50282;BME280;36176;51.506;10.272;2022-07-29T05:27:07;99509.75;;;18.14;50.27
50282;BME280;36176;51.506;10.272;2022-07-29T05:29:34;99504.13;;;18.17;50.46
50282;BME280;36176;51.506;10.272;2022-07-29T05:32:12;99503.31;;;18.27;49.85
50282;BME280;36176;51.506;10.272;2022-07-29T05:34:40;99506.38;;;18.34;49.05
50282;BME280;36176;51.506;10.272;2022-07-29T05:37:20;99508.44;;;18.42;50.02
50282;BME280;36176;51.506;10.272;2022-07-29T05:39:47;99511.63;;;18.47;49.50
50282;BME280;36176;51.506;10.272;2022-07-29T05:42:24;99511.84;;;18.55;48.64
50282;BME280;36176;51.506;10.272;2022-07-29T05:44:51;99500.63;;;18.61;48.78
50282;BME280;36176;51.506;10.272;2022-07-29T05:47:18;99505.13;;;18.72;49.56
50282;BME280;36176;51.506;10.272;2022-07-29T05:49:46;99505.28;;;18.82;48.71
50282;BME280;36176;51.506;10.272;2022-07-29T05:52:13;99510.78;;;18.91;48.02
50282;BME280;36176;51.506;10.272;2022-07-29T05:54:40;99512.31;;;19.05;47.28
50282;BME280;36176;51.506;10.272;2022-07-29T05:57:15;99508.63;;;19.18;47.01
50282;BME280;36176;51.506;10.272;2022-07-29T05:59:42;99509.66;;;19.38;47.28
50282;BME280;36176;51.506;10.272;2022-07-29T06:02:09;99508.22;;;19.66;48.00
50282;BME280;36176;51.506;10.272;2022-07-29T06:04:37;99515.91;;;20.12;45.54
50282;BME280;36176;51.506;10.272;2022-07-29T06:07:04;99512.81;;;20.38;44.37
50282;BME280;36176;51.506;10.272;2022-07-29T06:09:32;99510.09;;;20.28;44.13
50282;BME280;36176;51.506;10.272;2022-07-29T06:12:02;99506.56;;;20.07;44.29
50282;BME280;36176;51.506;10.272;2022-07-29T06:14:29;99513.19;;;20.03;45.14
50282;BME280;36176;51.506;10.272;2022-07-29T06:16:57;99511.66;;;20.10;44.45
50282;BME280;36176;51.506;10.272;2022-07-29T06:19:24;99512.97;;;20.15;44.50
50282;BME280;36176;51.506;10.272;2022-07-29T06:21:51;99505.16;;;20.33;44.77
50282;BME280;36176;51.506;10.272;2022-07-29T06:24:18;99508.19;;;20.50;43.96
50282;BME280;36176;51.506;10.272;2022-07-29T06:26:46;99504.00;;;20.57;43.65
50282;BME280;36176;51.506;10.272;2022-07-29T06:29:13;99500.47;;;20.66;43.05
50282;BME280;36176;51.506;10.272;2022-07-29T06:31:40;99500.56;;;20.86;42.80
50282;BME280;36176;51.506;10.272;2022-07-29T06:34:07;99507.69;;;21.06;42.83
50282;BME280;36176;51.506;10.272;2022-07-29T06:36:38;99506.31;;;21.21;43.07
50282;BME280;36176;51.506;10.272;2022-07-29T06:39:07;99510.63;;;21.43;42.52
50282;BME280;36176;51.506;10.272;2022-07-29T06:41:34;99505.19;;;21.34;40.75
50282;BME280;36176;51.506;10.272;2022-07-29T06:44:02;99507.00;;;21.23;42.98
50282;BME280;36176;51.506;10.272;2022-07-29T06:46:31;99509.78;;;21.43;42.04
50282;BME280;36176;51.506;10.272;2022-07-29T06:48:59;99507.50;;;21.58;42.58
50282;BME280;36176;51.506;10.272;2022-07-29T06:51:28;99510.22;;;21.67;42.11
50282;BME280;36176;51.506;10.272;2022-07-29T06:53:56;99511.47;;;21.63;41.55
50282;BME280;36176;51.506;10.272;2022-07-29T06:56:30;99514.75;;;21.57;42.72
50282;BME280;36176;51.506;10.272;2022-07-29T06:59:07;99515.31;;;21.61;41.76
50282;BME280;36176;51.506;10.272;2022-07-29T07:01:39;99519.44;;;21.75;42.36
50282;BME280;36176;51.506;10.272;2022-07-29T07:04:08;99521.41;;;21.92;41.50
50282;BME280;36176;51.506;10.272;2022-07-29T07:06:36;99523.63;;;22.16;41.37
50282;BME280;36176;51.506;10.272;2022-07-29T07:09:04;99534.53;;;22.44;41.80
50282;BME280;36176;51.506;10.272;2022-07-29T07:11:31;99526.22;;;22.55;39.89
50282;BME280;36176;51.506;10.272;2022-07-29T07:13:58;99534.94;;;22.49;40.38
50282;BME280;36176;51.506;10.272;2022-07-29T07:16:40;99530.31;;;22.32;39.49
50282;BME280;36176;51.506;10.272;2022-07-29T07:19:07;99524.34;;;22.08;40.08
50282;BME280;36176;51.506;10.272;2022-07-29T07:21:35;99535.59;;;21.84;39.92
50282;BME280;36176;51.506;10.272;2022-07-29T07:24:02;99526.81;;;21.73;41.25
50282;BME280;36176;51.506;10.272;2022-07-29T07:26:29;99528.78;;;21.80;41.90
50282;BME280;36176;51.506;10.272;2022-07-29T07:28:56;99532.59;;;21.97;41.15
50282;BME280;36176;51.506;10.272;2022-07-29T07:31:24;99533.16;;;22.11;40.80
50282;BME280;36176;51.506;10.272;2022-07-29T07:33:51;99531.59;;;22.18;41.51
50282;BME280;36176;51.506;10.272;2022-07-29T07:36:20;99525.34;;;22.27;41.70
50282;BME280;36176;51.506;10.272;2022-07-29T07:41:17;99535.78;;;22.49;42.51
50282;BME280;36176;51.506;10.272;2022-07-29T07:43:44;99528.00;;;22.74;41.77
50282;BME280;36176;51.506;10.272;2022-07-29T07:46:11;99525.38;;;22.92;41.21
50282;BME280;36176;51.506;10.272;2022-07-29T07:48:38;99524.34;;;23.03;40.14
50282;BME280;36176;51.506;10.272;2022-07-29T07:51:06;99521.44;;;23.14;40.01
50282;BME280;36176;51.506;10.272;2022-07-29T07:53:34;99521.97;;;23.18;39.89
50282;BME280;36176;51.506;10.272;2022-07-29T07:56:01;99525.38;;;23.20;39.34
50282;BME280;36176;51.506;10.272;2022-07-29T07:58:38;99532.63;;;22.91;39.92
50282;BME280;36176;51.506;10.272;2022-07-29T08:01:06;99532.44;;;23.03;40.07
50282;BME280;36176;51.506;10.272;2022-07-29T08:03:36;99538.34;;;23.16;41.16
50282;BME280;36176;51.506;10.272;2022-07-29T08:06:03;99540.75;;;23.19;40.13
50282;BME280;36176;51.506;10.272;2022-07-29T08:08:31;99529.22;;;23.17;40.25
50282;BME280;36176;51.506;10.272;2022-07-29T08:10:58;99533.97;;;23.33;40.53
50282;BME280;36176;51.506;10.272;2022-07-29T08:13:31;99530.81;;;23.55;41.29
50282;BME280;36176;51.506;10.272;2022-07-29T08:15:59;99529.63;;;23.86;39.99
50282;BME280;36176;51.506;10.272;2022-07-29T08:18:39;99527.09;;;24.10;40.17
50282;BME280;36176;51.506;10.272;2022-07-29T08:21:06;99523.47;;;24.28;39.38
50282;BME280;36176;51.506;10.272;2022-07-29T08:23:33;99532.28;;;24.30;37.95
50282;BME280;36176;51.506;10.272;2022-07-29T08:26:19;99525.22;;;24.37;37.63
50282;BME280;36176;51.506;10.272;2022-07-29T08:28:46;99531.53;;;24.37;37.78
50282;BME280;36176;51.506;10.272;2022-07-29T08:31:16;99529.28;;;24.33;38.74
50282;BME280;36176;51.506;10.272;2022-07-29T08:33:43;99523.69;;;24.34;39.05
50282;BME280;36176;51.506;10.272;2022-07-29T08:36:10;99525.59;;;24.42;38.52
50282;BME280;36176;51.506;10.272;2022-07-29T08:38:39;99528.56;;;24.49;38.80
50282;BME280;36176;51.506;10.272;2022-07-29T08:41:07;99522.16;;;24.32;38.38
50282;BME280;36176;51.506;10.272;2022-07-29T08:43:34;99522.16;;;24.32;38.90
50282;BME280;36176;51.506;10.272;2022-07-29T08:46:04;99530.84;;;24.35;39.18
50282;BME280;36176;51.506;10.272;2022-07-29T08:48:32;99529.09;;;24.52;38.52
50282;BME280;36176;51.506;10.272;2022-07-29T08:51:07;99517.44;;;24.94;38.30
50282;BME280;36176;51.506;10.272;2022-07-29T08:53:36;99516.59;;;25.44;36.72
50282;BME280;36176;51.506;10.272;2022-07-29T08:56:05;99519.69;;;25.91;35.07
50282;BME280;36176;51.506;10.272;2022-07-29T08:58:33;99512.19;;;26.34;36.46
50282;BME280;36176;51.506;10.272;2022-07-29T09:01:04;99511.75;;;26.78;35.92
50282;BME280;36176;51.506;10.272;2022-07-29T09:03:34;99504.78;;;27.14;32.94
50282;BME280;36176;51.506;10.272;2022-07-29T09:06:03;99500.56;;;27.43;34.55
50282;BME280;36176;51.506;10.272;2022-07-29T09:08:32;99500.75;;;27.42;32.12
50282;BME280;36176;51.506;10.272;2022-07-29T09:11:03;99500.53;;;26.81;33.29
50282;BME280;36176;51.506;10.272;2022-07-29T09:13:32;99500.28;;;26.51;34.92
50282;BME280;36176;51.506;10.272;2022-07-29T09:15:59;99498.97;;;26.22;34.29
50282;BME280;36176;51.506;10.272;2022-07-29T09:21:04;99497.63;;;25.77;36.40
50282;BME280;36176;51.506;10.272;2022-07-29T09:24:00;99493.75;;;25.72;36.01
50282;BME280;36176;51.506;10.272;2022-07-29T09:26:28;99486.22;;;25.33;35.76
50282;BME280;36176;51.506;10.272;2022-07-29T09:28:57;99489.72;;;25.17;37.65
50282;BME280;36176;51.506;10.272;2022-07-29T09:31:35;99483.78;;;25.13;38.94
50282;BME280;36176;51.506;10.272;2022-07-29T09:34:04;99483.28;;;25.10;38.37
50282;BME280;36176;51.506;10.272;2022-07-29T09:36:38;99475.78;;;25.03;39.35
50282;BME280;36176;51.506;10.272;2022-07-29T09:39:06;99466.97;;;25.01;38.90
50282;BME280;36176;51.506;10.272;2022-07-29T09:41:46;99462.59;;;25.00;40.08
50282;BME280;36176;51.506;10.272;2022-07-29T09:44:14;99457.50;;;25.05;39.32
50282;BME280;36176;51.506;10.272;2022-07-29T09:47:02;99456.06;;;25.19;40.31
50282;BME280;36176;51.506;10.272;2022-07-29T09:49:54;99464.88;;;25.30;36.17
50282;BME280;36176;51.506;10.272;2022-07-29T09:52:21;99467.56;;;25.38;37.28
50282;BME280;36176;51.506;10.272;2022-07-29T09:54:48;99466.09;;;25.60;37.49
50282;BME280;36176;51.506;10.272;2022-07-29T09:57:26;99463.03;;;25.71;36.50
50282;BME280;36176;51.506;10.272;2022-07-29T09:59:57;99461.69;;;25.51;36.24
50282;BME280;36176;51.506;10.272;2022-07-29T10:02:33;99459.44;;;25.38;36.30
50282;BME280;36176;51.506;10.272;2022-07-29T10:05:02;99459.25;;;25.23;36.45
50282;BME280;36176;51.506;10.272;2022-07-29T10:07:52;99459.44;;;25.30;38.32
50282;BME280;36176;51.506;10.272;2022-07-29T10:10:28;99457.19;;;25.17;36.19
50282;BME280;36176;51.506;10.272;2022-07-29T10:12:58;99459.38;;;25.05;37.47
50282;BME280;36176;51.506;10.272;2022-07-29T10:15:35;99456.47;;;24.98;36.36
50282;BME280;36176;51.506;10.272;2022-07-29T10:18:11;99460.16;;;24.89;37.51
50282;BME280;36176;51.506;10.272;2022-07-29T10:20:39;99458.84;;;24.93;38.26
50282;BME280;36176;51.506;10.272;2022-07-29T10:23:06;99450.41;;;25.13;37.68
50282;BME280;36176;51.506;10.272;2022-07-29T10:25:34;99463.03;;;25.38;37.71
50282;BME280;36176;51.506;10.272;2022-07-29T10:28:01;99458.28;;;25.81;35.82
50282;BME280;36176;51.506;10.272;2022-07-29T10:30:28;99460.28;;;26.12;37.40
50282;BME280;36176;51.506;10.272;2022-07-29T10:33:15;99451.88;;;26.63;34.38
50282;BME280;36176;51.506;10.272;2022-07-29T10:35:48;99452.59;;;26.88;33.26
50282;BME280;36176;51.506;10.272;2022-07-29T10:41:39;99447.81;;;27.67;31.72
50282;BME280;36176;51.506;10.272;2022-07-29T10:44:16;99448.94;;;27.96;33.92
50282;BME280;36176;51.506;10.272;2022-07-29T10:46:46;99445.16;;;28.50;30.82
50282;BME280;36176;51.506;10.272;2022-07-29T10:49:27;99442.97;;;28.75;30.24
50282;BME280;36176;51.506;10.272;2022-07-29T10:52:06;99447.09;;;28.71;28.09
50282;BME280;36176;51.506;10.272;2022-07-29T10:57:30;99438.53;;;29.25;28.81
50282;BME280;36176;51.506;10.272;2022-07-29T11:00:29;99434.69;;;29.62;31.27
50282;BME280;36176;51.506;10.272;2022-07-29T11:02:57;99435.72;;;30.11;28.82
50282;BME280;36176;51.506;10.272;2022-07-29T11:05:25;99425.53;;;30.61;27.50
50282;BME280;36176;51.506;10.272;2022-07-29T11:10:51;99426.25;;;31.91;27.10
50282;BME280;36176;51.506;10.272;2022-07-29T11:16:14;99422.94;;;32.68;25.67
50282;BME280;36176;51.506;10.272;2022-07-29T11:21:41;99431.09;;;31.63;25.76
50282;BME280;36176;51.506;10.272;2022-07-29T11:24:25;99428.38;;;31.83;26.18
50282;BME280;36176;51.506;10.272;2022-07-29T11:29:52;99421.81;;;32.17;25.25
50282;BME280;36176;51.506;10.272;2022-07-29T11:32:21;99419.94;;;32.04;24.68
50282;BME280;36176;51.506;10.272;2022-07-29T11:37:46;99423.91;;;31.35;25.71
50282;BME280;36176;51.506;10.272;2022-07-29T11:40:23;99422.50;;;30.91;26.19
50282;BME280;36176;51.506;10.272;2022-07-29T11:42:51;99410.81;;;31.10;25.62
50282;BME280;36176;51.506;10.272;2022-07-29T11:45:26;99416.94;;;30.71;25.45
50282;BME280;36176;51.506;10.272;2022-07-29T11:48:15;99411.22;;;30.24;27.59
50282;BME280;36176;51.506;10.272;2022-07-29T11:50:56;99410.72;;;30.14;27.13
50282;BME280;36176;51.506;10.272;2022-07-29T11:53:24;99404.94;;;30.72;27.05
50282;BME280;36176;51.506;10.272;2022-07-29T11:55:55;99404.97;;;31.47;25.58
50282;BME280;36176;51.506;10.272;2022-07-29T11:58:24;99399.72;;;31.58;24.79
50282;BME280;36176;51.506;10.272;2022-07-29T12:00:52;99400.75;;;31.57;24.39
50282;BME280;36176;51.506;10.272;2022-07-29T12:03:27;99403.72;;;31.43;24.91
50282;BME280;36176;51.506;10.272;2022-07-29T12:06:13;99398.16;;;31.09;24.19
50282;BME280;36176;51.506;10.272;2022-07-29T12:08:41;99395.19;;;31.04;25.18
50282;BME280;36176;51.506;10.272;2022-07-29T12:11:18;99392.69;;;31.09;26.17
50282;BME280;36176;51.506;10.272;2022-07-29T12:13:49;99388.53;;;31.53;24.78
50282;BME280;36176;51.506;10.272;2022-07-29T12:16:17;99401.81;;;31.50;24.34
50282;BME280;36176;51.506;10.272;2022-07-29T12:19:02;99397.31;;;31.09;24.91
50282;BME280;36176;51.506;10.272;2022-07-29T12:21:46;99392.66;;;30.89;25.00
50282;BME280;36176;51.506;10.272;2022-07-29T12:24:22;99388.63;;;30.85;25.77
50282;BME280;36176;51.506;10.272;2022-07-29T12:26:56;99392.13;;;30.66;24.84
50282;BME280;36176;51.506;10.272;2022-07-29T12:29:23;99383.84;;;30.46;24.79
50282;BME280;36176;51.506;10.272;2022-07-29T12:32:03;99396.41;;;30.12;24.83
50282;BME280;36176;51.506;10.272;2022-07-29T12:34:45;99391.34;;;29.74;25.59
50282;BME280;36176;51.506;10.272;2022-07-29T12:37:13;99390.56;;;29.59;27.03
50282;BME280;36176;51.506;10.272;2022-07-29T12:39:52;99388.38;;;29.69;27.66
50282;BME280;36176;51.506;10.272;2022-07-29T12:42:19;99388.34;;;29.97;26.68
50282;BME280;36176;51.506;10.272;2022-07-29T12:44:50;99379.84;;;30.48;25.09
50282;BME280;36176;51.506;10.272;2022-07-29T12:47:19;99372.66;;;30.95;24.34
50282;BME280;36176;51.506;10.272;2022-07-29T12:49:47;99367.66;;;31.32;24.30
50282;BME280;36176;51.506;10.272;2022-07-29T12:52:30;99365.56;;;31.81;24.67
50282;BME280;36176;51.506;10.272;2022-07-29T12:54:58;99362.00;;;31.67;24.68
50282;BME280;36176;51.506;10.272;2022-07-29T12:57:26;99355.03;;;31.31;24.01
50282;BME280;36176;51.506;10.272;2022-07-29T13:00:04;99353.16;;;31.25;25.81
50282;BME280;36176;51.506;10.272;2022-07-29T13:02:31;99354.59;;;31.21;24.20
50282;BME280;36176;51.506;10.272;2022-07-29T13:04:59;99354.72;;;30.80;24.35
50282;BME280;36176;51.506;10.272;2022-07-29T13:07:30;99350.16;;;30.45;25.52
50282;BME280;36176;51.506;10.272;2022-07-29T13:10:20;99353.22;;;30.22;26.74
50282;BME280;36176;51.506;10.272;2022-07-29T13:13:13;99355.44;;;30.05;27.28
50282;BME280;36176;51.506;10.272;2022-07-29T13:16:05;99355.88;;;29.81;26.40
50282;BME280;36176;51.506;10.272;2022-07-29T13:18:35;99355.91;;;29.59;26.67
50282;BME280;36176;51.506;10.272;2022-07-29T13:21:13;99367.75;;;29.66;27.57
50282;BME280;36176;51.506;10.272;2022-07-29T13:23:41;99359.25;;;29.83;27.92
50282;BME280;36176;51.506;10.272;2022-07-29T13:26:11;99350.53;;;30.29;27.27
50282;BME280;36176;51.506;10.272;2022-07-29T13:28:38;99346.38;;;31.01;26.32
50282;BME280;36176;51.506;10.272;2022-07-29T13:31:10;99347.06;;;31.63;25.91
50282;BME280;36176;51.506;10.272;2022-07-29T13:33:38;99346.78;;;32.11;24.23
50282;BME280;36176;51.506;10.272;2022-07-29T13:36:06;99344.91;;;32.63;25.46
50282;BME280;36176;51.506;10.272;2022-07-29T13:38:34;99340.25;;;33.02;23.88
50282;BME280;36176;51.506;10.272;2022-07-29T13:41:01;99340.78;;;33.18;23.97
50282;BME280;36176;51.506;10.272;2022-07-29T13:43:29;99335.72;;;33.21;24.21
50282;BME280;36176;51.506;10.272;2022-07-29T13:45:56;99341.59;;;33.25;23.57
50282;BME280;36176;51.506;10.272;2022-07-29T13:48:23;99332.22;;;33.08;23.48
50282;BME280;36176;51.506;10.272;2022-07-29T13:51:05;99332.38;;;32.81;24.14
50282;BME280;36176;51.506;10.272;2022-07-29T13:53:32;99335.19;;;32.68;24.67
50282;BME280;36176;51.506;10.272;2022-07-29T13:56:00;99333.34;;;32.61;24.62
50282;BME280;36176;51.506;10.272;2022-07-29T13:58:27;99331.13;;;32.77;24.08
50282;BME280;36176;51.506;10.272;2022-07-29T14:00:55;99334.56;;;32.66;23.50
50282;BME280;36176;51.506;10.272;2022-07-29T14:03:29;99326.78;;;32.62;23.79